Sardis, Alabama
Current Conditions -  °F | °C
As of 11:15 AM on Sunday 23 Nov 2014 (Local Time) from KSEM Reporting Station
Overcast Overcast  
Wind Chill: 66°   Ceiling: 500
Heat Index: 66°   Visibility: 10mi
Dew Point: 64°   Wind: 13mph
Humidity: 94%   Direction: 110°ESE
Pressure: 29.66"   Gusts: 18mph
Location:  32.29°N, 86.99°W
Report Text: KSEM 231715Z AUTO 11011G16KT 10SM BKN005 OVC009 19/18 A2966 RMK AO2
Loading
Personal Weather Stations






























Interactive Weather Map New forecast layout! Learn more

10-Day Weather Forecast

Advertisements
Track Severe Weather on mobile